CheckWX is a tool to help pilots better visualize weather data.  It is not intended as a substitute for an official pre-flight weather briefing.

22:18:01 UTC

KHIF METAR
Hill AFB Airport
Ogden, Utah, USA
Current

1 hour ago

KHIF 152058Z AUTO 26005KT 10SM CLR 31/06 A3005 RMK AO2 SLP107 T03140057 57011
Observed
Jul-15 @ 20:58 UTC
Wind
  • 260° at 5 KTS
Visibility
10 SM
Flight Rules
VFR
Cloud Levels
  • Clear skies
Temperature
31°C / 88°F
Dewpoint
C / 43°F
Humidity
21%
Altimeter
30.05" Hg
Pressure
1017.62 hPa
Previous

2 hours ago

KHIF 151958Z AUTO 24006KT 10SM CLR 31/07 A3007 RMK AO2 SLP112 T03110069
Observed
Jul-15 @ 19:58 UTC
Wind
  • 240° at 6 KTS
Visibility
10 SM
Flight Rules
VFR
Cloud Levels
  • Clear skies
Temperature
31°C / 88°F
Dewpoint
C / 45°F
Humidity
22%
Altimeter
30.07" Hg
Pressure
1018.32 hPa
Previous

3 hours ago

KHIF 151858Z AUTO 19006KT 10SM CLR 30/10 A3008 RMK AO2 SLP115 T03010096
Observed
Jul-15 @ 18:58 UTC
Wind
  • 190° at 6 KTS
Visibility
10 SM
Flight Rules
VFR
Cloud Levels
  • Clear skies
Temperature
30°C / 86°F
Dewpoint
10°C / 50°F
Humidity
29%
Altimeter
30.08" Hg
Pressure
1018.62 hPa